sensor_id;sensor_type;location;lat;lon;timestamp;pressure;altitude;pressure_sealevel;temperature
42119;BMP280;27783;42.782;23.274;2024-01-30T00:01:36;97561.25;;;-0.84
42119;BMP280;27783;42.782;23.274;2024-01-30T00:04:02;97561.06;;;-1.22
42119;BMP280;27783;42.782;23.274;2024-01-30T00:06:28;97560.78;;;-1.20
42119;BMP280;27783;42.782;23.274;2024-01-30T00:08:53;97562.06;;;-1.13
42119;BMP280;27783;42.782;23.274;2024-01-30T00:11:19;97560.53;;;-1.29
42119;BMP280;27783;42.782;23.274;2024-01-30T00:13:44;97562.84;;;-1.61
42119;BMP280;27783;42.782;23.274;2024-01-30T00:16:22;97566.72;;;-1.54
42119;BMP280;27783;42.782;23.274;2024-01-30T00:18:50;97564.16;;;-1.39
42119;BMP280;27783;42.782;23.274;2024-01-30T00:21:16;97568.56;;;-1.25
42119;BMP280;27783;42.782;23.274;2024-01-30T00:23:41;97563.13;;;-1.24
42119;BMP280;27783;42.782;23.274;2024-01-30T00:26:07;97565.19;;;-1.16
42119;BMP280;27783;42.782;23.274;2024-01-30T00:28:32;97569.84;;;-1.37
42119;BMP280;27783;42.782;23.274;2024-01-30T00:30:58;97573.72;;;-1.30
42119;BMP280;27783;42.782;23.274;2024-01-30T00:33:23;97562.34;;;-1.29
42119;BMP280;27783;42.782;23.274;2024-01-30T00:35:49;97571.13;;;-1.30
42119;BMP280;27783;42.782;23.274;2024-01-30T00:38:14;97576.06;;;-1.43
42119;BMP280;27783;42.782;23.274;2024-01-30T00:40:39;97571.38;;;-1.51
42119;BMP280;27783;42.782;23.274;2024-01-30T00:43:05;97571.13;;;-1.54
42119;BMP280;27783;42.782;23.274;2024-01-30T00:45:31;97567.25;;;-1.52
42119;BMP280;27783;42.782;23.274;2024-01-30T00:47:56;97570.59;;;-1.66
42119;BMP280;27783;42.782;23.274;2024-01-30T00:50:22;97562.34;;;-1.58
42119;BMP280;27783;42.782;23.274;2024-01-30T00:52:47;97569.56;;;-1.60
42119;BMP280;27783;42.782;23.274;2024-01-30T00:55:13;97573.72;;;-1.69
42119;BMP280;27783;42.782;23.274;2024-01-30T00:57:40;97567.50;;;-1.68
42119;BMP280;27783;42.782;23.274;2024-01-30T01:00:06;97563.09;;;-1.67
42119;BMP280;27783;42.782;23.274;2024-01-30T01:02:37;97570.63;;;-1.37
42119;BMP280;27783;42.782;23.274;2024-01-30T01:05:04;97583.56;;;-1.42
42119;BMP280;27783;42.782;23.274;2024-01-30T01:07:30;97565.97;;;-1.40
42119;BMP280;27783;42.782;23.274;2024-01-30T01:09:55;97575.78;;;-1.37
42119;BMP280;27783;42.782;23.274;2024-01-30T01:12:21;97568.53;;;-1.54
42119;BMP280;27783;42.782;23.274;2024-01-30T01:14:47;97576.06;;;-1.29
42119;BMP280;27783;42.782;23.274;2024-01-30T01:17:13;97570.59;;;-0.98
42119;BMP280;27783;42.782;23.274;2024-01-30T01:19:38;97571.63;;;-1.04
42119;BMP280;27783;42.782;23.274;2024-01-30T01:22:04;97562.31;;;-1.05
42119;BMP280;27783;42.782;23.274;2024-01-30T01:24:31;97560.72;;;-0.77
42119;BMP280;27783;42.782;23.274;2024-01-30T01:26:57;97566.94;;;-0.87
42119;BMP280;27783;42.782;23.274;2024-01-30T01:29:22;97563.59;;;-0.88
42119;BMP280;27783;42.782;23.274;2024-01-30T01:31:56;97561.00;;;-0.88
42119;BMP280;27783;42.782;23.274;2024-01-30T01:34:22;97564.13;;;-0.86
42119;BMP280;27783;42.782;23.274;2024-01-30T01:36:51;97562.03;;;-0.79
42119;BMP280;27783;42.782;23.274;2024-01-30T01:39:17;97554.19;;;-0.65
42119;BMP280;27783;42.782;23.274;2024-01-30T01:41:42;97557.28;;;-0.58
42119;BMP280;27783;42.782;23.274;2024-01-30T01:44:08;97555.22;;;-0.61
42119;BMP280;27783;42.782;23.274;2024-01-30T01:46:34;97565.66;;;-0.80
42119;BMP280;27783;42.782;23.274;2024-01-30T01:49:00;97551.41;;;-0.78
42119;BMP280;27783;42.782;23.274;2024-01-30T01:51:29;97558.69;;;-0.89
42119;BMP280;27783;42.782;23.274;2024-01-30T01:53:56;97560.97;;;-0.78
42119;BMP280;27783;42.782;23.274;2024-01-30T01:56:26;97556.09;;;-0.89
42119;BMP280;27783;42.782;23.274;2024-01-30T01:58:54;97568.03;;;-1.03
42119;BMP280;27783;42.782;23.274;2024-01-30T02:01:20;97577.34;;;-1.07
42119;BMP280;27783;42.782;23.274;2024-01-30T02:03:46;97574.47;;;-0.96
42119;BMP280;27783;42.782;23.274;2024-01-30T02:06:13;97566.69;;;-0.91
42119;BMP280;27783;42.782;23.274;2024-01-30T02:08:39;97568.03;;;-1.03
42119;BMP280;27783;42.782;23.274;2024-01-30T02:11:04;97570.53;;;-0.79
42119;BMP280;27783;42.782;23.274;2024-01-30T02:13:30;97566.16;;;-0.73
42119;BMP280;27783;42.782;23.274;2024-01-30T02:15:55;97565.84;;;-0.62
42119;BMP280;27783;42.782;23.274;2024-01-30T02:18:20;97575.19;;;-0.66
42119;BMP280;27783;42.782;23.274;2024-01-30T02:20:47;97567.69;;;-0.72
42119;BMP280;27783;42.782;23.274;2024-01-30T02:23:15;97565.09;;;-0.72
42119;BMP280;27783;42.782;23.274;2024-01-30T02:25:40;97567.97;;;-0.74
42119;BMP280;27783;42.782;23.274;2024-01-30T02:28:13;97565.31;;;-0.59
42119;BMP280;27783;42.782;23.274;2024-01-30T02:30:47;97566.31;;;-0.46
42119;BMP280;27783;42.782;23.274;2024-01-30T02:33:13;97562.44;;;-0.43
42119;BMP280;27783;42.782;23.274;2024-01-30T02:35:39;97561.47;;;-0.05
42119;BMP280;27783;42.782;23.274;2024-01-30T02:38:04;97558.44;;;-0.26
42119;BMP280;27783;42.782;23.274;2024-01-30T02:40:30;97561.09;;;-0.36
42119;BMP280;27783;42.782;23.274;2024-01-30T02:42:56;97565.56;;;-0.56
42119;BMP280;27783;42.782;23.274;2024-01-30T02:45:21;97566.38;;;-0.60
42119;BMP280;27783;42.782;23.274;2024-01-30T02:47:47;97559.88;;;-0.58
42119;BMP280;27783;42.782;23.274;2024-01-30T02:50:12;97568.97;;;-0.60
42119;BMP280;27783;42.782;23.274;2024-01-30T02:52:39;97564.84;;;-0.66
42119;BMP280;27783;42.782;23.274;2024-01-30T02:55:05;97563.69;;;-0.36
42119;BMP280;27783;42.782;23.274;2024-01-30T02:57:30;97558.50;;;-0.31
42119;BMP280;27783;42.782;23.274;2024-01-30T02:59:56;97559.47;;;-0.22
42119;BMP280;27783;42.782;23.274;2024-01-30T03:02:21;97565.72;;;-0.23
42119;BMP280;27783;42.782;23.274;2024-01-30T03:04:47;97549.53;;;-0.06
42119;BMP280;27783;42.782;23.274;2024-01-30T03:07:12;97557.31;;;-0.01
42119;BMP280;27783;42.782;23.274;2024-01-30T03:09:38;97551.13;;;-0.10
42119;BMP280;27783;42.782;23.274;2024-01-30T03:12:04;97556.06;;;-0.13
42119;BMP280;27783;42.782;23.274;2024-01-30T03:14:30;97556.38;;;-0.24
42119;BMP280;27783;42.782;23.274;2024-01-30T03:16:56;97552.78;;;-0.28
42119;BMP280;27783;42.782;23.274;2024-01-30T03:19:21;97554.66;;;-0.43
42119;BMP280;27783;42.782;23.274;2024-01-30T03:21:47;97552.34;;;-0.54
42119;BMP280;27783;42.782;23.274;2024-01-30T03:24:12;97558.31;;;-0.54
42119;BMP280;27783;42.782;23.274;2024-01-30T03:26:37;97546.41;;;-0.55
42119;BMP280;27783;42.782;23.274;2024-01-30T03:29:03;97549.78;;;-0.59
42119;BMP280;27783;42.782;23.274;2024-01-30T03:31:28;97551.34;;;-0.58
42119;BMP280;27783;42.782;23.274;2024-01-30T03:33:54;97546.94;;;-0.58
42119;BMP280;27783;42.782;23.274;2024-01-30T03:36:19;97550.03;;;-0.56
42119;BMP280;27783;42.782;23.274;2024-01-30T03:38:45;97545.13;;;-0.62
42119;BMP280;27783;42.782;23.274;2024-01-30T03:41:10;97550.34;;;-0.67
42119;BMP280;27783;42.782;23.274;2024-01-30T03:43:36;97548.78;;;-0.68
42119;BMP280;27783;42.782;23.274;2024-01-30T03:46:02;97544.13;;;-0.66
42119;BMP280;27783;42.782;23.274;2024-01-30T03:48:28;97542.53;;;-0.57
42119;BMP280;27783;42.782;23.274;2024-01-30T03:50:54;97540.19;;;-0.59
42119;BMP280;27783;42.782;23.274;2024-01-30T03:53:19;97534.22;;;-0.54
42119;BMP280;27783;42.782;23.274;2024-01-30T03:55:45;97536.81;;;-0.59
42119;BMP280;27783;42.782;23.274;2024-01-30T03:58:10;97533.78;;;-0.66
42119;BMP280;27783;42.782;23.274;2024-01-30T04:00:36;97536.59;;;-0.72
42119;BMP280;27783;42.782;23.274;2024-01-30T04:03:01;97537.44;;;-0.77
42119;BMP280;27783;42.782;23.274;2024-01-30T04:05:27;97528.88;;;-0.77
42119;BMP280;27783;42.782;23.274;2024-01-30T04:07:52;97526.03;;;-0.85
42119;BMP280;27783;42.782;23.274;2024-01-30T04:10:18;97532.78;;;-0.80
42119;BMP280;27783;42.782;23.274;2024-01-30T04:12:43;97531.22;;;-0.81
42119;BMP280;27783;42.782;23.274;2024-01-30T04:15:09;97531.97;;;-0.70
42119;BMP280;27783;42.782;23.274;2024-01-30T04:17:34;97520.53;;;-0.65
42119;BMP280;27783;42.782;23.274;2024-01-30T04:19:59;97533.50;;;-0.60
42119;BMP280;27783;42.782;23.274;2024-01-30T04:22:25;97528.84;;;-0.72
42119;BMP280;27783;42.782;23.274;2024-01-30T04:24:50;97529.91;;;-0.78
42119;BMP280;27783;42.782;23.274;2024-01-30T04:27:16;97532.25;;;-0.77
42119;BMP280;27783;42.782;23.274;2024-01-30T04:29:41;97537.91;;;-0.75
42119;BMP280;27783;42.782;23.274;2024-01-30T04:32:07;97535.88;;;-0.73
42119;BMP280;27783;42.782;23.274;2024-01-30T04:34:32;97527.53;;;-0.65
42119;BMP280;27783;42.782;23.274;2024-01-30T04:36:57;97533.78;;;-0.66
42119;BMP280;27783;42.782;23.274;2024-01-30T04:39:23;97543.06;;;-0.60
42119;BMP280;27783;42.782;23.274;2024-01-30T04:41:49;97542.00;;;-0.59
42119;BMP280;27783;42.782;23.274;2024-01-30T04:44:14;97544.38;;;-0.67
42119;BMP280;27783;42.782;23.274;2024-01-30T04:46:40;97548.28;;;-0.70
42119;BMP280;27783;42.782;23.274;2024-01-30T04:49:05;97544.66;;;-0.74
42119;BMP280;27783;42.782;23.274;2024-01-30T04:51:33;97562.75;;;-0.69
42119;BMP280;27783;42.782;23.274;2024-01-30T04:53:58;97564.13;;;-1.15
42119;BMP280;27783;42.782;23.274;2024-01-30T04:56:24;97566.47;;;-1.04
42119;BMP280;27783;42.782;23.274;2024-01-30T04:58:49;97574.75;;;-1.50
42119;BMP280;27783;42.782;23.274;2024-01-30T05:01:16;97560.78;;;-1.40
42119;BMP280;27783;42.782;23.274;2024-01-30T05:03:41;97568.81;;;-1.36
42119;BMP280;27783;42.782;23.274;2024-01-30T05:06:07;97562.59;;;-1.26
42119;BMP280;27783;42.782;23.274;2024-01-30T05:08:32;97565.72;;;-1.29
42119;BMP280;27783;42.782;23.274;2024-01-30T05:11:00;97577.34;;;-1.17
42119;BMP280;27783;42.782;23.274;2024-01-30T05:13:25;97571.63;;;-0.99
42119;BMP280;27783;42.782;23.274;2024-01-30T05:15:51;97566.97;;;-1.02
42119;BMP280;27783;42.782;23.274;2024-01-30T05:18:16;97568.53;;;-1.01
42119;BMP280;27783;42.782;23.274;2024-01-30T05:20:42;97575.75;;;-0.98
42119;BMP280;27783;42.782;23.274;2024-01-30T05:23:07;97570.06;;;-1.05
42119;BMP280;27783;42.782;23.274;2024-01-30T05:25:33;97576.56;;;-1.12
42119;BMP280;27783;42.782;23.274;2024-01-30T05:27:58;97570.88;;;-1.14
42119;BMP280;27783;42.782;23.274;2024-01-30T05:30:24;97574.75;;;-1.17
42119;BMP280;27783;42.782;23.274;2024-01-30T05:32:49;97575.03;;;-1.23
42119;BMP280;27783;42.782;23.274;2024-01-30T05:35:14;97581.75;;;-1.22
42119;BMP280;27783;42.782;23.274;2024-01-30T05:37:40;97565.97;;;-1.30
42119;BMP280;27783;42.782;23.274;2024-01-30T05:40:06;97578.63;;;-1.43
42119;BMP280;27783;42.782;23.274;2024-01-30T05:42:32;97576.81;;;-1.48
42119;BMP280;27783;42.782;23.274;2024-01-30T05:44:57;97570.88;;;-1.33
42119;BMP280;27783;42.782;23.274;2024-01-30T05:47:22;97570.09;;;-1.34
42119;BMP280;27783;42.782;23.274;2024-01-30T05:49:48;97579.91;;;-1.21
42119;BMP280;27783;42.782;23.274;2024-01-30T05:52:13;97579.66;;;-1.20
42119;BMP280;27783;42.782;23.274;2024-01-30T05:54:40;97576.56;;;-1.17
42119;BMP280;27783;42.782;23.274;2024-01-30T05:57:05;97579.41;;;-1.18
42119;BMP280;27783;42.782;23.274;2024-01-30T05:59:32;97577.06;;;-1.15
42119;BMP280;27783;42.782;23.274;2024-01-30T06:01:57;97582.00;;;-1.23
42119;BMP280;27783;42.782;23.274;2024-01-30T06:04:23;97591.31;;;-1.17
42119;BMP280;27783;42.782;23.274;2024-01-30T06:06:48;97587.66;;;-1.02
42119;BMP280;27783;42.782;23.274;2024-01-30T06:09:15;97580.94;;;-0.98
42119;BMP280;27783;42.782;23.274;2024-01-30T06:11:40;97592.34;;;-0.99
42119;BMP280;27783;42.782;23.274;2024-01-30T06:14:06;97589.22;;;-0.96
42119;BMP280;27783;42.782;23.274;2024-01-30T06:16:31;97580.41;;;-0.90
42119;BMP280;27783;42.782;23.274;2024-01-30T06:18:56;97588.16;;;-0.85
42119;BMP280;27783;42.782;23.274;2024-01-30T06:21:23;97590.97;;;-0.72
42119;BMP280;27783;42.782;23.274;2024-01-30T06:23:48;97591.22;;;-0.69
42119;BMP280;27783;42.782;23.274;2024-01-30T06:26:14;97584.75;;;-0.57
42119;BMP280;27783;42.782;23.274;2024-01-30T06:28:41;97591.72;;;-0.52
42119;BMP280;27783;42.782;23.274;2024-01-30T06:31:07;97589.66;;;-0.50
42119;BMP280;27783;42.782;23.274;2024-01-30T06:33:33;97590.13;;;-0.34
42119;BMP280;27783;42.782;23.274;2024-01-30T06:35:58;97577.13;;;-0.29
42119;BMP280;27783;42.782;23.274;2024-01-30T06:38:24;97584.38;;;-0.26
42119;BMP280;27783;42.782;23.274;2024-01-30T06:40:49;97586.16;;;-0.22
42119;BMP280;27783;42.782;23.274;2024-01-30T06:43:14;97588.19;;;-0.09
42119;BMP280;27783;42.782;23.274;2024-01-30T06:45:40;97579.56;;;0.05
42119;BMP280;27783;42.782;23.274;2024-01-30T06:48:06;97571.25;;;0.08
42119;BMP280;27783;42.782;23.274;2024-01-30T06:50:32;97585.66;;;0.23
42119;BMP280;27783;42.782;23.274;2024-01-30T06:52:58;97578.91;;;0.27
42119;BMP280;27783;42.782;23.274;2024-01-30T06:55:23;97584.09;;;0.27
42119;BMP280;27783;42.782;23.274;2024-01-30T06:57:49;97586.38;;;0.38
42119;BMP280;27783;42.782;23.274;2024-01-30T07:00:15;97591.25;;;0.45
42119;BMP280;27783;42.782;23.274;2024-01-30T07:02:41;97591.69;;;0.56
42119;BMP280;27783;42.782;23.274;2024-01-30T07:05:07;97585.38;;;0.67
42119;BMP280;27783;42.782;23.274;2024-01-30T07:07:32;97584.28;;;0.73
42119;BMP280;27783;42.782;23.274;2024-01-30T07:09:58;97581.91;;;0.81
42119;BMP280;27783;42.782;23.274;2024-01-30T07:12:23;97590.19;;;0.83
42119;BMP280;27783;42.782;23.274;2024-01-30T07:14:50;97583.09;;;0.93
42119;BMP280;27783;42.782;23.274;2024-01-30T07:17:16;97581.66;;;1.10
42119;BMP280;27783;42.782;23.274;2024-01-30T07:19:41;97586.91;;;1.05
42119;BMP280;27783;42.782;23.274;2024-01-30T07:22:07;97587.06;;;1.14
42119;BMP280;27783;42.782;23.274;2024-01-30T07:24:34;97584.03;;;1.30
42119;BMP280;27783;42.782;23.274;2024-01-30T07:26:59;97580.44;;;1.26
42119;BMP280;27783;42.782;23.274;2024-01-30T07:29:25;97591.84;;;1.30
42119;BMP280;27783;42.782;23.274;2024-01-30T07:31:50;97579.72;;;1.48
42119;BMP280;27783;42.782;23.274;2024-01-30T07:34:16;97581.78;;;1.46
42119;BMP280;27783;42.782;23.274;2024-01-30T07:36:41;97583.84;;;1.72
42119;BMP280;27783;42.782;23.274;2024-01-30T07:39:08;97589.34;;;1.48
42119;BMP280;27783;42.782;23.274;2024-01-30T07:41:35;97575.28;;;1.49
42119;BMP280;27783;42.782;23.274;2024-01-30T07:44:00;97578.31;;;1.55
42119;BMP280;27783;42.782;23.274;2024-01-30T07:46:25;97579.16;;;1.74
42119;BMP280;27783;42.782;23.274;2024-01-30T07:48:51;97572.13;;;1.74
42119;BMP280;27783;42.782;23.274;2024-01-30T07:51:16;97580.88;;;1.83
42119;BMP280;27783;42.782;23.274;2024-01-30T07:53:42;97581.31;;;1.90
42119;BMP280;27783;42.782;23.274;2024-01-30T07:56:07;97575.69;;;2.01
42119;BMP280;27783;42.782;23.274;2024-01-30T07:58:33;97574.41;;;1.99
42119;BMP280;27783;42.782;23.274;2024-01-30T08:00:58;97569.50;;;2.15
42119;BMP280;27783;42.782;23.274;2024-01-30T08:03:26;97570.78;;;1.99
42119;BMP280;27783;42.782;23.274;2024-01-30T08:05:52;97574.19;;;2.36
42119;BMP280;27783;42.782;23.274;2024-01-30T08:08:17;97563.47;;;2.19
42119;BMP280;27783;42.782;23.274;2024-01-30T08:10:43;97577.75;;;2.22
42119;BMP280;27783;42.782;23.274;2024-01-30T08:13:08;97569.81;;;2.14
42119;BMP280;27783;42.782;23.274;2024-01-30T08:15:34;97576.81;;;1.95
42119;BMP280;27783;42.782;23.274;2024-01-30T08:18:00;97576.41;;;2.24
42119;BMP280;27783;42.782;23.274;2024-01-30T08:20:26;97572.56;;;2.40
42119;BMP280;27783;42.782;23.274;2024-01-30T08:22:52;97577.03;;;2.70
42119;BMP280;27783;42.782;23.274;2024-01-30T08:25:18;97563.63;;;2.46
42119;BMP280;27783;42.782;23.274;2024-01-30T08:27:44;97578.25;;;2.91
42119;BMP280;27783;42.782;23.274;2024-01-30T08:30:10;97581.28;;;2.49
42119;BMP280;27783;42.782;23.274;2024-01-30T08:32:36;97579.94;;;2.33
42119;BMP280;27783;42.782;23.274;2024-01-30T08:35:01;97578.53;;;2.58
42119;BMP280;27783;42.782;23.274;2024-01-30T08:37:29;97592.03;;;2.60
42119;BMP280;27783;42.782;23.274;2024-01-30T08:39:54;97575.56;;;2.83
42119;BMP280;27783;42.782;23.274;2024-01-30T08:42:20;97582.50;;;2.87
42119;BMP280;27783;42.782;23.274;2024-01-30T08:44:49;97584.25;;;2.91
42119;BMP280;27783;42.782;23.274;2024-01-30T08:47:16;97578.47;;;2.94
42119;BMP280;27783;42.782;23.274;2024-01-30T08:49:43;97573.56;;;2.93
42119;BMP280;27783;42.782;23.274;2024-01-30T08:52:12;97574.59;;;2.92
42119;BMP280;27783;42.782;23.274;2024-01-30T08:54:37;97580.03;;;2.95
42119;BMP280;27783;42.782;23.274;2024-01-30T08:57:03;97583.66;;;3.12
42119;BMP280;27783;42.782;23.274;2024-01-30T08:59:29;97584.09;;;3.01
42119;BMP280;27783;42.782;23.274;2024-01-30T09:01:55;97581.16;;;3.33
42119;BMP280;27783;42.782;23.274;2024-01-30T09:04:23;97598.78;;;3.10
42119;BMP280;27783;42.782;23.274;2024-01-30T09:06:49;97584.97;;;3.41
42119;BMP280;27783;42.782;23.274;2024-01-30T09:09:14;97587.69;;;3.05
42119;BMP280;27783;42.782;23.274;2024-01-30T09:11:40;97590.44;;;3.39
42119;BMP280;27783;42.782;23.274;2024-01-30T09:14:05;97588.31;;;2.97
42119;BMP280;27783;42.782;23.274;2024-01-30T09:16:31;97591.94;;;3.14
42119;BMP280;27783;42.782;23.274;2024-01-30T09:18:57;97588.66;;;3.09
42119;BMP280;27783;42.782;23.274;2024-01-30T09:21:22;97581.75;;;3.31
42119;BMP280;27783;42.782;23.274;2024-01-30T09:23:48;97590.97;;;3.54
42119;BMP280;27783;42.782;23.274;2024-01-30T09:26:13;97579.34;;;3.03
42119;BMP280;27783;42.782;23.274;2024-01-30T09:28:39;97579.44;;;3.29
42119;BMP280;27783;42.782;23.274;2024-01-30T09:31:04;97577.59;;;3.30
42119;BMP280;27783;42.782;23.274;2024-01-30T09:33:34;97589.59;;;3.44
42119;BMP280;27783;42.782;23.274;2024-01-30T09:36:00;97576.50;;;3.75
42119;BMP280;27783;42.782;23.274;2024-01-30T09:38:25;97575.91;;;3.91
42119;BMP280;27783;42.782;23.274;2024-01-30T09:40:54;97572.06;;;3.75
42119;BMP280;27783;42.782;23.274;2024-01-30T09:43:23;97570.19;;;3.76
42119;BMP280;27783;42.782;23.274;2024-01-30T09:45:50;97572.34;;;3.74
42119;BMP280;27783;42.782;23.274;2024-01-30T09:48:16;97570.75;;;3.33
42119;BMP280;27783;42.782;23.274;2024-01-30T09:50:41;97563.34;;;3.53
42119;BMP280;27783;42.782;23.274;2024-01-30T09:53:11;97550.97;;;4.11
42119;BMP280;27783;42.782;23.274;2024-01-30T09:55:37;97560.66;;;3.71
42119;BMP280;27783;42.782;23.274;2024-01-30T09:58:02;97561.22;;;3.82
42119;BMP280;27783;42.782;23.274;2024-01-30T10:00:27;97560.84;;;3.49
42119;BMP280;27783;42.782;23.274;2024-01-30T10:02:53;97560.81;;;4.01
42119;BMP280;27783;42.782;23.274;2024-01-30T10:05:19;97555.47;;;4.19
42119;BMP280;27783;42.782;23.274;2024-01-30T10:07:55;97555.88;;;3.99
42119;BMP280;27783;42.782;23.274;2024-01-30T10:10:24;97562.53;;;3.40
42119;BMP280;27783;42.782;23.274;2024-01-30T10:12:49;97543.78;;;4.16
42119;BMP280;27783;42.782;23.274;2024-01-30T10:15:15;97546.44;;;3.90
42119;BMP280;27783;42.782;23.274;2024-01-30T10:17:40;97550.25;;;4.19
42119;BMP280;27783;42.782;23.274;2024-01-30T10:20:07;97548.94;;;3.95
42119;BMP280;27783;42.782;23.274;2024-01-30T10:22:33;97542.47;;;3.80
42119;BMP280;27783;42.782;23.274;2024-01-30T10:25:00;97537.03;;;4.02
42119;BMP280;27783;42.782;23.274;2024-01-30T10:27:26;97551.00;;;3.72
42119;BMP280;27783;42.782;23.274;2024-01-30T10:29:52;97544.44;;;4.22
42119;BMP280;27783;42.782;23.274;2024-01-30T10:32:17;97549.91;;;3.73
42119;BMP280;27783;42.782;23.274;2024-01-30T10:34:43;97536.69;;;3.82
42119;BMP280;27783;42.782;23.274;2024-01-30T10:37:10;97536.06;;;3.98
42119;BMP280;27783;42.782;23.274;2024-01-30T10:39:41;97539.88;;;4.40
42119;BMP280;27783;42.782;23.274;2024-01-30T10:42:11;97529.44;;;4.83
42119;BMP280;27783;42.782;23.274;2024-01-30T10:45:09;97531.31;;;4.14
42119;BMP280;27783;42.782;23.274;2024-01-30T10:47:35;97526.41;;;4.47
42119;BMP280;27783;42.782;23.274;2024-01-30T10:50:04;97526.06;;;4.27
42119;BMP280;27783;42.782;23.274;2024-01-30T10:52:31;97523.66;;;4.51
42119;BMP280;27783;42.782;23.274;2024-01-30T10:54:58;97508.53;;;4.40
42119;BMP280;27783;42.782;23.274;2024-01-30T10:57:25;97508.16;;;4.33
42119;BMP280;27783;42.782;23.274;2024-01-30T10:59:55;97505.16;;;4.82
42119;BMP280;27783;42.782;23.274;2024-01-30T11:02:22;97501.53;;;4.28
42119;BMP280;27783;42.782;23.274;2024-01-30T11:04:56;97495.81;;;4.68
42119;BMP280;27783;42.782;23.274;2024-01-30T11:07:27;97507.06;;;4.48
42119;BMP280;27783;42.782;23.274;2024-01-30T11:10:03;97495.78;;;4.60
42119;BMP280;27783;42.782;23.274;2024-01-30T11:12:32;97490.72;;;4.42
42119;BMP280;27783;42.782;23.274;2024-01-30T11:20:40;97482.97;;;4.50
42119;BMP280;27783;42.782;23.274;2024-01-30T11:23:11;97487.34;;;4.63
42119;BMP280;27783;42.782;23.274;2024-01-30T11:25:37;97483.75;;;4.51
42119;BMP280;27783;42.782;23.274;2024-01-30T11:28:02;97487.69;;;5.59
42119;BMP280;27783;42.782;23.274;2024-01-30T11:30:30;97486.16;;;4.69
42119;BMP280;27783;42.782;23.274;2024-01-30T11:33:15;97468.13;;;4.81
42119;BMP280;27783;42.782;23.274;2024-01-30T11:35:44;97471.69;;;4.63
42119;BMP280;27783;42.782;23.274;2024-01-30T11:38:14;97474.00;;;4.94
42119;BMP280;27783;42.782;23.274;2024-01-30T11:40:40;97474.66;;;4.99
42119;BMP280;27783;42.782;23.274;2024-01-30T11:43:08;97480.50;;;4.75
42119;BMP280;27783;42.782;23.274;2024-01-30T11:45:35;97467.63;;;4.79
42119;BMP280;27783;42.782;23.274;2024-01-30T11:48:02;97463.97;;;4.88
42119;BMP280;27783;42.782;23.274;2024-01-30T11:50:32;97466.41;;;4.84
42119;BMP280;27783;42.782;23.274;2024-01-30T11:52:59;97462.38;;;5.00
42119;BMP280;27783;42.782;23.274;2024-01-30T11:55:25;97463.47;;;4.35
42119;BMP280;27783;42.782;23.274;2024-01-30T11:57:51;97461.53;;;4.62
42119;BMP280;27783;42.782;23.274;2024-01-30T12:00:18;97456.47;;;5.24
42119;BMP280;27783;42.782;23.274;2024-01-30T12:02:50;97454.41;;;4.32
42119;BMP280;27783;42.782;23.274;2024-01-30T12:05:16;97457.91;;;4.49
42119;BMP280;27783;42.782;23.274;2024-01-30T12:07:44;97449.13;;;4.97
42119;BMP280;27783;42.782;23.274;2024-01-30T12:10:10;97444.59;;;4.38
42119;BMP280;27783;42.782;23.274;2024-01-30T12:12:36;97439.63;;;4.28
42119;BMP280;27783;42.782;23.274;2024-01-30T12:15:02;97440.69;;;4.70
42119;BMP280;27783;42.782;23.274;2024-01-30T12:17:32;97433.59;;;4.19
42119;BMP280;27783;42.782;23.274;2024-01-30T12:20:19;97427.84;;;4.82
42119;BMP280;27783;42.782;23.274;2024-01-30T12:22:48;97434.66;;;4.40
42119;BMP280;27783;42.782;23.274;2024-01-30T12:25:15;97425.38;;;4.77
42119;BMP280;27783;42.782;23.274;2024-01-30T12:27:45;97440.22;;;4.47
42119;BMP280;27783;42.782;23.274;2024-01-30T12:30:13;97425.16;;;4.44
42119;BMP280;27783;42.782;23.274;2024-01-30T12:32:41;97423.69;;;4.81
42119;BMP280;27783;42.782;23.274;2024-01-30T12:35:12;97419.22;;;4.81
42119;BMP280;27783;42.782;23.274;2024-01-30T12:37:38;97415.00;;;4.93
42119;BMP280;27783;42.782;23.274;2024-01-30T12:40:04;97421.78;;;5.02
42119;BMP280;27783;42.782;23.274;2024-01-30T12:42:31;97427.91;;;4.68
42119;BMP280;27783;42.782;23.274;2024-01-30T12:44:58;97415.25;;;4.83
42119;BMP280;27783;42.782;23.274;2024-01-30T12:47:24;97414.72;;;5.03
42119;BMP280;27783;42.782;23.274;2024-01-30T12:49:49;97405.31;;;5.40
42119;BMP280;27783;42.782;23.274;2024-01-30T12:52:18;97404.16;;;5.16
42119;BMP280;27783;42.782;23.274;2024-01-30T12:54:44;97394.72;;;5.45
42119;BMP280;27783;42.782;23.274;2024-01-30T12:57:09;97408.41;;;4.96
42119;BMP280;27783;42.782;23.274;2024-01-30T12:59:35;97394.94;;;5.10
42119;BMP280;27783;42.782;23.274;2024-01-30T13:02:01;97397.50;;;5.02
42119;BMP280;27783;42.782;23.274;2024-01-30T13:04:27;97398.41;;;4.68
42119;BMP280;27783;42.782;23.274;2024-01-30T13:06:53;97392.16;;;5.15
42119;BMP280;27783;42.782;23.274;2024-01-30T13:09:19;97389.00;;;4.88
42119;BMP280;27783;42.782;23.274;2024-01-30T13:11:44;97391.25;;;4.82
42119;BMP280;27783;42.782;23.274;2024-01-30T13:14:10;97379.03;;;5.45
42119;BMP280;27783;42.782;23.274;2024-01-30T13:16:35;97392.31;;;4.72
42119;BMP280;27783;42.782;23.274;2024-01-30T13:19:01;97391.66;;;5.05
42119;BMP280;27783;42.782;23.274;2024-01-30T13:21:27;97385.84;;;4.40
42119;BMP280;27783;42.782;23.274;2024-01-30T13:23:53;97384.41;;;5.40
42119;BMP280;27783;42.782;23.274;2024-01-30T13:26:20;97374.38;;;5.25
42119;BMP280;27783;42.782;23.274;2024-01-30T13:28:45;97387.19;;;4.67
42119;BMP280;27783;42.782;23.274;2024-01-30T13:31:11;97390.31;;;4.78
42119;BMP280;27783;42.782;23.274;2024-01-30T13:33:38;97387.31;;;4.33
42119;BMP280;27783;42.782;23.274;2024-01-30T13:36:03;97382.09;;;4.33
42119;BMP280;27783;42.782;23.274;2024-01-30T13:38:28;97377.84;;;4.45
42119;BMP280;27783;42.782;23.274;2024-01-30T13:40:54;97375.56;;;4.44
42119;BMP280;27783;42.782;23.274;2024-01-30T13:43:20;97375.94;;;4.59
42119;BMP280;27783;42.782;23.274;2024-01-30T13:45:46;97375.13;;;4.80
42119;BMP280;27783;42.782;23.274;2024-01-30T13:48:11;97374.97;;;4.47
42119;BMP280;27783;42.782;23.274;2024-01-30T13:50:37;97378.69;;;4.54
42119;BMP280;27783;42.782;23.274;2024-01-30T13:53:06;97377.13;;;4.82
42119;BMP280;27783;42.782;23.274;2024-01-30T13:55:31;97378.00;;;4.40
42119;BMP280;27783;42.782;23.274;2024-01-30T13:57:57;97383.16;;;4.32
42119;BMP280;27783;42.782;23.274;2024-01-30T14:00:22;97378.19;;;4.01
42119;BMP280;27783;42.782;23.274;2024-01-30T14:02:48;97387.81;;;4.14
42119;BMP280;27783;42.782;23.274;2024-01-30T14:05:14;97382.75;;;4.17